Airfield :
LOGIN :

Register | Disclaimer

   EN    FR    IT 

 










Legend :    VFR   Marginal VFR   IFR   Intensive IFR   Very Intensive IFR
Visi :
Ceiling :
>= 8 km
>= 3000ft
5 to 8 km
1000 to 3000 ft
1500m to 5 km
500 to 1000 ft
800 to 1500m
200 to 500 ft
< 800m
< 200 ft
Symbols :   Thunderstorms  Fog  Heavy snow  Heavy precipitations  Wind > 20 kt
SIGMETs :     Misc.  Thunderstorms  Icing  Turbulence  Mountain Waves  Volcanic Ashes







- Airport Elevation : 821 ft
- IATA code : LYS
- Download approach charts


LFLL - Lyon St Exupéry / Satolas

CURRENT METAR :
  • 170300Z VRB01KT 3200 -RA BR SCT026 BKN040 05/05 Q1018 NOSIG

EXPIRED METARs :
  • 170230Z 27003KT 3200 -RA BR SCT024 BKN040 05/05 Q1018 NOSIG
  • 170200Z 00000KT 3300 BR BKN019 BKN040 05/04 Q1017 NOSIG
  • 170130Z 14002KT 3300 BR FEW020 BKN040 05/05 Q1017 NOSIG
  • 170100Z VRB03KT 3400 BR FEW030 BKN040 05/04 Q1016 NOSIG
  • 170030Z 06002KT 3700 BR SCT033 BKN050 05/04 Q1016 NOSIG

TAF TAF LFLL
Valid from the 17 at 00:00 until the 18 at 06:00 UTC


162300Z 1700/1806 VRB03KT 9999 BKN030
TEMPO 1700/1709 3000 -RA BR OVC008
PROB40
TEMPO 1701/1707 RA
BECMG 1719/1721 3000 BR NSC
TEMPO 1721/1806 0600 FG VV///
No reported NOTAMs for that airfield.
3 SIGMETs reported for the Marseille FIR (LFMM) :
 
Severe turbulence
LFMM SIGMET 4 VALID 170000/170400 LFPW
LFMM MARSEILLE FIR/UIR SEV TURB FCST S OF N4230 AND E OF E00830 SFC/FL100 STNR NC=
Severe turbulence
LFMM SIGMET 3 VALID 170000/170400 LFPW
LFMM MARSEILLE FIR/UIR SEV TURB FCST WI N4030 E00430 - N4200 E00430 - N4215 E00230 - N4330 E00245 - N4430 E00415 - N4130 E00615 - N4030 E00430 SFC/FL060 STNR NC=
Severe turbulence
LFMM SIGMET 1 VALID 170400/170800 LFPW
LFMM MARSEILLE FIR/UIR SEV TURB FCST WI N4030 E00430 - N4200 E00430 - N4215 E00230 - N4345 E00245 - N4500 E00400 - N4130 E00815 - N4030 E00430 SFC/FL060 STNR NC=



MET'MAP, your aeronautical weather chart ! - Copyright ORBIFLY December 2007 - Disclaimer

ORBIFLY MET'MAP TEAM :

Programming & Development : Alexandra Zaïnal
Concept & Development : Baudouin d'Aumeries
Co-Development & Prog : Marc-Olivier Méhu
Technical & hardware support : Manuel Goepfert

Contact : metmap@orbifly.com




SOURCES & CREDITS :

   NOAA